sensor_id;sensor_type;location;lat;lon;timestamp;P1;durP1;ratioP1;P2;durP2;ratioP2
7829;SDS011;3960;51.86894000;5.39848000;2023-06-05T00:01:17;7.55;;;3.92;;
7829;SDS011;3960;51.86894000;5.39848000;2023-06-05T00:03:42;12.75;;;4.30;;
7829;SDS011;3960;51.86894000;5.39848000;2023-06-05T00:06:08;10.23;;;4.00;;
7829;SDS011;3960;51.86894000;5.39848000;2023-06-05T00:08:34;7.30;;;4.30;;
7829;SDS011;3960;51.86894000;5.39848000;2023-06-05T00:10:59;9.38;;;4.53;;
7829;SDS011;3960;51.86894000;5.39848000;2023-06-05T00:13:24;9.57;;;4.47;;
7829;SDS011;3960;51.86894000;5.39848000;2023-06-05T00:15:49;7.78;;;4.38;;
7829;SDS011;3960;51.86894000;5.39848000;2023-06-05T00:18:16;11.13;;;4.63;;
7829;SDS011;3960;51.86894000;5.39848000;2023-06-05T00:20:42;8.00;;;4.20;;
7829;SDS011;3960;51.86894000;5.39848000;2023-06-05T00:23:08;9.98;;;4.00;;
7829;SDS011;3960;51.86894000;5.39848000;2023-06-05T00:25:33;5.85;;;4.10;;
7829;SDS011;3960;51.86894000;5.39848000;2023-06-05T00:27:59;7.82;;;4.30;;
7829;SDS011;3960;51.86894000;5.39848000;2023-06-05T00:30:24;7.53;;;4.43;;
7829;SDS011;3960;51.86894000;5.39848000;2023-06-05T00:32:49;6.88;;;4.82;;
7829;SDS011;3960;51.86894000;5.39848000;2023-06-05T00:35:15;7.07;;;4.82;;
7829;SDS011;3960;51.86894000;5.39848000;2023-06-05T00:37:40;10.57;;;4.78;;
7829;SDS011;3960;51.86894000;5.39848000;2023-06-05T00:40:05;7.55;;;4.57;;
7829;SDS011;3960;51.86894000;5.39848000;2023-06-05T00:42:31;10.43;;;4.90;;
7829;SDS011;3960;51.86894000;5.39848000;2023-06-05T00:44:57;7.63;;;4.47;;
7829;SDS011;3960;51.86894000;5.39848000;2023-06-05T00:47:22;9.15;;;4.88;;
7829;SDS011;3960;51.86894000;5.39848000;2023-06-05T00:49:49;9.82;;;4.38;;
7829;SDS011;3960;51.86894000;5.39848000;2023-06-05T00:52:15;7.10;;;4.63;;
7829;SDS011;3960;51.86894000;5.39848000;2023-06-05T00:54:43;10.25;;;4.57;;
7829;SDS011;3960;51.86894000;5.39848000;2023-06-05T00:57:08;8.95;;;4.50;;
7829;SDS011;3960;51.86894000;5.39848000;2023-06-05T00:59:34;10.95;;;4.57;;
7829;SDS011;3960;51.86894000;5.39848000;2023-06-05T01:02:01;9.50;;;4.70;;
7829;SDS011;3960;51.86894000;5.39848000;2023-06-05T01:04:28;6.78;;;4.32;;
7829;SDS011;3960;51.86894000;5.39848000;2023-06-05T01:06:54;8.20;;;4.65;;
7829;SDS011;3960;51.86894000;5.39848000;2023-06-05T01:09:22;7.97;;;4.35;;
7829;SDS011;3960;51.86894000;5.39848000;2023-06-05T01:14:30;10.85;;;4.90;;
7829;SDS011;3960;51.86894000;5.39848000;2023-06-05T01:16:59;9.83;;;5.33;;
7829;SDS011;3960;51.86894000;5.39848000;2023-06-05T01:19:26;10.45;;;4.47;;
7829;SDS011;3960;51.86894000;5.39848000;2023-06-05T01:21:54;6.82;;;4.82;;
7829;SDS011;3960;51.86894000;5.39848000;2023-06-05T01:24:20;7.22;;;4.75;;
7829;SDS011;3960;51.86894000;5.39848000;2023-06-05T01:29:28;9.18;;;4.78;;
7829;SDS011;3960;51.86894000;5.39848000;2023-06-05T01:31:59;7.63;;;4.72;;
7829;SDS011;3960;51.86894000;5.39848000;2023-06-05T01:34:32;8.50;;;5.03;;
7829;SDS011;3960;51.86894000;5.39848000;2023-06-05T01:37:00;7.03;;;4.60;;
7829;SDS011;3960;51.86894000;5.39848000;2023-06-05T01:39:27;10.98;;;5.32;;
7829;SDS011;3960;51.86894000;5.39848000;2023-06-05T01:41:54;6.75;;;4.80;;
7829;SDS011;3960;51.86894000;5.39848000;2023-06-05T01:44:20;8.85;;;5.22;;
7829;SDS011;3960;51.86894000;5.39848000;2023-06-05T01:46:46;9.40;;;5.03;;
7829;SDS011;3960;51.86894000;5.39848000;2023-06-05T01:49:11;9.30;;;4.70;;
7829;SDS011;3960;51.86894000;5.39848000;2023-06-05T01:51:37;8.45;;;4.95;;
7829;SDS011;3960;51.86894000;5.39848000;2023-06-05T01:54:02;9.95;;;5.10;;
7829;SDS011;3960;51.86894000;5.39848000;2023-06-05T01:56:30;11.40;;;6.20;;
7829;SDS011;3960;51.86894000;5.39848000;2023-06-05T01:58:57;9.60;;;5.70;;
7829;SDS011;3960;51.86894000;5.39848000;2023-06-05T02:01:22;9.27;;;5.55;;
7829;SDS011;3960;51.86894000;5.39848000;2023-06-05T02:03:48;11.32;;;6.18;;
7829;SDS011;3960;51.86894000;5.39848000;2023-06-05T02:06:15;7.55;;;5.45;;
7829;SDS011;3960;51.86894000;5.39848000;2023-06-05T02:08:41;11.90;;;5.75;;
7829;SDS011;3960;51.86894000;5.39848000;2023-06-05T02:11:07;11.70;;;6.03;;
7829;SDS011;3960;51.86894000;5.39848000;2023-06-05T02:13:36;10.38;;;5.78;;
7829;SDS011;3960;51.86894000;5.39848000;2023-06-05T02:16:05;9.48;;;6.63;;
7829;SDS011;3960;51.86894000;5.39848000;2023-06-05T02:18:33;9.98;;;5.97;;
7829;SDS011;3960;51.86894000;5.39848000;2023-06-05T02:21:02;12.02;;;6.30;;
7829;SDS011;3960;51.86894000;5.39848000;2023-06-05T02:23:28;10.73;;;6.40;;
7829;SDS011;3960;51.86894000;5.39848000;2023-06-05T02:25:53;10.82;;;6.20;;
7829;SDS011;3960;51.86894000;5.39848000;2023-06-05T02:28:18;12.27;;;6.18;;
7829;SDS011;3960;51.86894000;5.39848000;2023-06-05T02:30:45;8.65;;;6.18;;
7829;SDS011;3960;51.86894000;5.39848000;2023-06-05T02:33:13;8.85;;;6.05;;
7829;SDS011;3960;51.86894000;5.39848000;2023-06-05T02:35:39;9.23;;;6.50;;
7829;SDS011;3960;51.86894000;5.39848000;2023-06-05T02:38:05;9.73;;;6.10;;
7829;SDS011;3960;51.86894000;5.39848000;2023-06-05T02:40:35;13.02;;;6.30;;
7829;SDS011;3960;51.86894000;5.39848000;2023-06-05T02:43:00;13.57;;;6.55;;
7829;SDS011;3960;51.86894000;5.39848000;2023-06-05T02:45:26;9.00;;;6.53;;
7829;SDS011;3960;51.86894000;5.39848000;2023-06-05T02:47:51;12.43;;;6.43;;
7829;SDS011;3960;51.86894000;5.39848000;2023-06-05T02:50:17;10.43;;;6.68;;
7829;SDS011;3960;51.86894000;5.39848000;2023-06-05T02:52:42;12.23;;;7.13;;
7829;SDS011;3960;51.86894000;5.39848000;2023-06-05T02:55:07;10.57;;;6.80;;
7829;SDS011;3960;51.86894000;5.39848000;2023-06-05T02:57:33;11.43;;;6.65;;
7829;SDS011;3960;51.86894000;5.39848000;2023-06-05T03:00:06;9.75;;;6.85;;
7829;SDS011;3960;51.86894000;5.39848000;2023-06-05T03:02:39;10.35;;;6.95;;
7829;SDS011;3960;51.86894000;5.39848000;2023-06-05T03:05:05;11.02;;;6.28;;
7829;SDS011;3960;51.86894000;5.39848000;2023-06-05T03:07:31;10.32;;;6.63;;
7829;SDS011;3960;51.86894000;5.39848000;2023-06-05T03:09:58;13.20;;;7.63;;
7829;SDS011;3960;51.86894000;5.39848000;2023-06-05T03:12:24;14.88;;;7.10;;
7829;SDS011;3960;51.86894000;5.39848000;2023-06-05T03:14:49;14.20;;;7.10;;
7829;SDS011;3960;51.86894000;5.39848000;2023-06-05T03:17:14;11.95;;;6.93;;
7829;SDS011;3960;51.86894000;5.39848000;2023-06-05T03:19:39;11.25;;;7.68;;
7829;SDS011;3960;51.86894000;5.39848000;2023-06-05T03:22:05;12.63;;;7.00;;
7829;SDS011;3960;51.86894000;5.39848000;2023-06-05T03:24:31;13.48;;;7.00;;
7829;SDS011;3960;51.86894000;5.39848000;2023-06-05T03:26:59;13.13;;;7.55;;
7829;SDS011;3960;51.86894000;5.39848000;2023-06-05T03:29:25;11.05;;;7.40;;
7829;SDS011;3960;51.86894000;5.39848000;2023-06-05T03:31:51;12.02;;;7.53;;
7829;SDS011;3960;51.86894000;5.39848000;2023-06-05T03:34:16;10.77;;;6.82;;
7829;SDS011;3960;51.86894000;5.39848000;2023-06-05T03:36:41;15.45;;;7.82;;
7829;SDS011;3960;51.86894000;5.39848000;2023-06-05T03:39:07;12.38;;;8.13;;
7829;SDS011;3960;51.86894000;5.39848000;2023-06-05T03:41:32;10.15;;;7.60;;
7829;SDS011;3960;51.86894000;5.39848000;2023-06-05T03:43:57;12.07;;;7.53;;
7829;SDS011;3960;51.86894000;5.39848000;2023-06-05T03:46:23;13.35;;;7.80;;
7829;SDS011;3960;51.86894000;5.39848000;2023-06-05T03:48:49;10.88;;;7.60;;
7829;SDS011;3960;51.86894000;5.39848000;2023-06-05T03:51:14;11.00;;;7.47;;
7829;SDS011;3960;51.86894000;5.39848000;2023-06-05T03:53:43;11.68;;;7.72;;
7829;SDS011;3960;51.86894000;5.39848000;2023-06-05T03:56:09;13.60;;;8.32;;
7829;SDS011;3960;51.86894000;5.39848000;2023-06-05T03:58:36;13.02;;;7.65;;
7829;SDS011;3960;51.86894000;5.39848000;2023-06-05T04:01:03;12.15;;;7.82;;
7829;SDS011;3960;51.86894000;5.39848000;2023-06-05T04:03:28;10.75;;;7.25;;
7829;SDS011;3960;51.86894000;5.39848000;2023-06-05T04:05:53;14.75;;;8.02;;
7829;SDS011;3960;51.86894000;5.39848000;2023-06-05T04:08:19;12.00;;;8.30;;
7829;SDS011;3960;51.86894000;5.39848000;2023-06-05T04:10:44;15.13;;;8.30;;
7829;SDS011;3960;51.86894000;5.39848000;2023-06-05T04:13:09;12.45;;;7.60;;
7829;SDS011;3960;51.86894000;5.39848000;2023-06-05T04:15:34;16.20;;;8.73;;
7829;SDS011;3960;51.86894000;5.39848000;2023-06-05T04:18:00;13.10;;;7.75;;
7829;SDS011;3960;51.86894000;5.39848000;2023-06-05T04:20:25;12.60;;;8.10;;
7829;SDS011;3960;51.86894000;5.39848000;2023-06-05T04:22:50;13.13;;;8.50;;
7829;SDS011;3960;51.86894000;5.39848000;2023-06-05T04:25:16;14.35;;;8.32;;
7829;SDS011;3960;51.86894000;5.39848000;2023-06-05T04:27:43;13.32;;;8.38;;
7829;SDS011;3960;51.86894000;5.39848000;2023-06-05T04:30:10;13.35;;;8.63;;
7829;SDS011;3960;51.86894000;5.39848000;2023-06-05T04:32:37;13.98;;;8.30;;
7829;SDS011;3960;51.86894000;5.39848000;2023-06-05T04:35:04;17.10;;;8.30;;
7829;SDS011;3960;51.86894000;5.39848000;2023-06-05T04:37:30;12.50;;;7.60;;
7829;SDS011;3960;51.86894000;5.39848000;2023-06-05T04:39:56;12.70;;;8.18;;
7829;SDS011;3960;51.86894000;5.39848000;2023-06-05T04:42:23;20.50;;;8.60;;
7829;SDS011;3960;51.86894000;5.39848000;2023-06-05T04:44:58;13.45;;;8.10;;
7829;SDS011;3960;51.86894000;5.39848000;2023-06-05T04:47:26;12.35;;;7.82;;
7829;SDS011;3960;51.86894000;5.39848000;2023-06-05T04:49:52;18.02;;;9.18;;
7829;SDS011;3960;51.86894000;5.39848000;2023-06-05T04:52:18;16.20;;;8.52;;
7829;SDS011;3960;51.86894000;5.39848000;2023-06-05T04:54:48;16.42;;;8.73;;
7829;SDS011;3960;51.86894000;5.39848000;2023-06-05T04:57:13;13.95;;;8.65;;
7829;SDS011;3960;51.86894000;5.39848000;2023-06-05T04:59:41;15.73;;;8.73;;
7829;SDS011;3960;51.86894000;5.39848000;2023-06-05T05:02:07;16.55;;;9.55;;
7829;SDS011;3960;51.86894000;5.39848000;2023-06-05T05:04:33;17.83;;;8.77;;
7829;SDS011;3960;51.86894000;5.39848000;2023-06-05T05:06:59;14.07;;;7.97;;
7829;SDS011;3960;51.86894000;5.39848000;2023-06-05T05:09:26;16.85;;;8.63;;
7829;SDS011;3960;51.86894000;5.39848000;2023-06-05T05:11:52;12.77;;;8.75;;
7829;SDS011;3960;51.86894000;5.39848000;2023-06-05T05:14:17;12.13;;;8.40;;
7829;SDS011;3960;51.86894000;5.39848000;2023-06-05T05:16:43;13.98;;;8.45;;
7829;SDS011;3960;51.86894000;5.39848000;2023-06-05T05:19:08;15.90;;;8.82;;
7829;SDS011;3960;51.86894000;5.39848000;2023-06-05T05:21:33;15.32;;;8.88;;
7829;SDS011;3960;51.86894000;5.39848000;2023-06-05T05:23:58;11.40;;;7.82;;
7829;SDS011;3960;51.86894000;5.39848000;2023-06-05T05:26:29;15.35;;;8.27;;
7829;SDS011;3960;51.86894000;5.39848000;2023-06-05T05:28:55;14.82;;;8.13;;
7829;SDS011;3960;51.86894000;5.39848000;2023-06-05T05:31:20;14.52;;;8.02;;
7829;SDS011;3960;51.86894000;5.39848000;2023-06-05T05:33:46;13.75;;;8.10;;
7829;SDS011;3960;51.86894000;5.39848000;2023-06-05T05:36:11;11.35;;;7.55;;
7829;SDS011;3960;51.86894000;5.39848000;2023-06-05T05:38:37;12.20;;;7.30;;
7829;SDS011;3960;51.86894000;5.39848000;2023-06-05T05:41:02;16.38;;;7.30;;
7829;SDS011;3960;51.86894000;5.39848000;2023-06-05T05:43:31;14.48;;;8.00;;
7829;SDS011;3960;51.86894000;5.39848000;2023-06-05T05:45:56;11.63;;;7.13;;
7829;SDS011;3960;51.86894000;5.39848000;2023-06-05T05:48:21;10.77;;;6.20;;
7829;SDS011;3960;51.86894000;5.39848000;2023-06-05T05:50:48;12.13;;;6.30;;
7829;SDS011;3960;51.86894000;5.39848000;2023-06-05T05:53:14;12.00;;;6.15;;
7829;SDS011;3960;51.86894000;5.39848000;2023-06-05T05:55:39;12.77;;;6.35;;
7829;SDS011;3960;51.86894000;5.39848000;2023-06-05T05:58:07;9.73;;;6.05;;
7829;SDS011;3960;51.86894000;5.39848000;2023-06-05T06:05:41;9.80;;;6.22;;
7829;SDS011;3960;51.86894000;5.39848000;2023-06-05T06:08:06;9.73;;;6.05;;
7829;SDS011;3960;51.86894000;5.39848000;2023-06-05T06:10:32;12.40;;;5.88;;
7829;SDS011;3960;51.86894000;5.39848000;2023-06-05T06:12:58;15.77;;;6.20;;
7829;SDS011;3960;51.86894000;5.39848000;2023-06-05T06:15:24;8.90;;;5.38;;
7829;SDS011;3960;51.86894000;5.39848000;2023-06-05T06:17:52;10.20;;;5.13;;
7829;SDS011;3960;51.86894000;5.39848000;2023-06-05T06:20:18;9.75;;;5.80;;
7829;SDS011;3960;51.86894000;5.39848000;2023-06-05T06:22:43;10.85;;;5.53;;
7829;SDS011;3960;51.86894000;5.39848000;2023-06-05T06:25:20;11.45;;;5.88;;
7829;SDS011;3960;51.86894000;5.39848000;2023-06-05T06:27:46;7.10;;;4.90;;
7829;SDS011;3960;51.86894000;5.39848000;2023-06-05T06:30:13;8.77;;;5.50;;
7829;SDS011;3960;51.86894000;5.39848000;2023-06-05T06:32:39;8.35;;;4.68;;
7829;SDS011;3960;51.86894000;5.39848000;2023-06-05T06:35:05;8.65;;;5.38;;
7829;SDS011;3960;51.86894000;5.39848000;2023-06-05T06:37:33;10.93;;;6.53;;
7829;SDS011;3960;51.86894000;5.39848000;2023-06-05T06:39:59;9.30;;;5.75;;
7829;SDS011;3960;51.86894000;5.39848000;2023-06-05T06:42:24;10.98;;;5.88;;
7829;SDS011;3960;51.86894000;5.39848000;2023-06-05T06:44:51;9.35;;;5.22;;
7829;SDS011;3960;51.86894000;5.39848000;2023-06-05T06:47:20;9.55;;;4.95;;
7829;SDS011;3960;51.86894000;5.39848000;2023-06-05T06:49:50;10.02;;;5.43;;
7829;SDS011;3960;51.86894000;5.39848000;2023-06-05T06:52:16;9.90;;;5.22;;
7829;SDS011;3960;51.86894000;5.39848000;2023-06-05T06:54:43;10.60;;;5.22;;
7829;SDS011;3960;51.86894000;5.39848000;2023-06-05T06:57:09;12.93;;;5.63;;
7829;SDS011;3960;51.86894000;5.39848000;2023-06-05T06:59:34;9.82;;;5.82;;
7829;SDS011;3960;51.86894000;5.39848000;2023-06-05T07:02:12;10.57;;;5.60;;
7829;SDS011;3960;51.86894000;5.39848000;2023-06-05T07:04:39;10.85;;;5.55;;
7829;SDS011;3960;51.86894000;5.39848000;2023-06-05T07:07:07;8.93;;;4.80;;
7829;SDS011;3960;51.86894000;5.39848000;2023-06-05T07:09:33;8.73;;;5.78;;
7829;SDS011;3960;51.86894000;5.39848000;2023-06-05T07:11:58;11.27;;;5.20;;
7829;SDS011;3960;51.86894000;5.39848000;2023-06-05T07:14:29;11.10;;;4.70;;
7829;SDS011;3960;51.86894000;5.39848000;2023-06-05T07:16:54;11.15;;;5.50;;
7829;SDS011;3960;51.86894000;5.39848000;2023-06-05T07:19:21;10.07;;;4.93;;
7829;SDS011;3960;51.86894000;5.39848000;2023-06-05T07:21:47;9.73;;;5.07;;
7829;SDS011;3960;51.86894000;5.39848000;2023-06-05T07:24:12;11.77;;;5.43;;
7829;SDS011;3960;51.86894000;5.39848000;2023-06-05T07:26:40;9.27;;;5.03;;
7829;SDS011;3960;51.86894000;5.39848000;2023-06-05T07:29:06;14.00;;;6.00;;
7829;SDS011;3960;51.86894000;5.39848000;2023-06-05T07:31:31;14.20;;;5.53;;
7829;SDS011;3960;51.86894000;5.39848000;2023-06-05T07:33:56;9.02;;;5.22;;
7829;SDS011;3960;51.86894000;5.39848000;2023-06-05T07:36:22;8.02;;;4.85;;
7829;SDS011;3960;51.86894000;5.39848000;2023-06-05T07:38:47;11.23;;;5.38;;
7829;SDS011;3960;51.86894000;5.39848000;2023-06-05T07:41:13;11.93;;;5.40;;
7829;SDS011;3960;51.86894000;5.39848000;2023-06-05T07:43:38;7.45;;;4.25;;
7829;SDS011;3960;51.86894000;5.39848000;2023-06-05T07:46:09;8.73;;;4.80;;
7829;SDS011;3960;51.86894000;5.39848000;2023-06-05T07:48:35;11.63;;;5.05;;
7829;SDS011;3960;51.86894000;5.39848000;2023-06-05T07:51:01;6.55;;;4.88;;
7829;SDS011;3960;51.86894000;5.39848000;2023-06-05T07:53:29;7.90;;;4.60;;
7829;SDS011;3960;51.86894000;5.39848000;2023-06-05T07:55:55;11.90;;;4.85;;
7829;SDS011;3960;51.86894000;5.39848000;2023-06-05T07:58:21;5.68;;;4.22;;
7829;SDS011;3960;51.86894000;5.39848000;2023-06-05T08:00:46;6.75;;;4.50;;
7829;SDS011;3960;51.86894000;5.39848000;2023-06-05T08:03:16;7.97;;;4.40;;
7829;SDS011;3960;51.86894000;5.39848000;2023-06-05T08:05:51;11.40;;;5.07;;
7829;SDS011;3960;51.86894000;5.39848000;2023-06-05T08:08:17;7.10;;;4.80;;
7829;SDS011;3960;51.86894000;5.39848000;2023-06-05T08:10:43;8.82;;;4.75;;
7829;SDS011;3960;51.86894000;5.39848000;2023-06-05T08:13:09;10.93;;;4.68;;
7829;SDS011;3960;51.86894000;5.39848000;2023-06-05T08:15:35;7.63;;;4.72;;
7829;SDS011;3960;51.86894000;5.39848000;2023-06-05T08:18:00;9.70;;;4.60;;
7829;SDS011;3960;51.86894000;5.39848000;2023-06-05T08:20:26;14.35;;;5.22;;
7829;SDS011;3960;51.86894000;5.39848000;2023-06-05T08:22:51;10.48;;;4.63;;
7829;SDS011;3960;51.86894000;5.39848000;2023-06-05T08:25:16;9.88;;;4.47;;
7829;SDS011;3960;51.86894000;5.39848000;2023-06-05T08:27:42;8.45;;;4.72;;
7829;SDS011;3960;51.86894000;5.39848000;2023-06-05T08:30:07;6.40;;;4.45;;
7829;SDS011;3960;51.86894000;5.39848000;2023-06-05T08:32:33;7.00;;;4.60;;
7829;SDS011;3960;51.86894000;5.39848000;2023-06-05T08:34:58;7.78;;;4.47;;
7829;SDS011;3960;51.86894000;5.39848000;2023-06-05T08:37:24;7.13;;;4.40;;
7829;SDS011;3960;51.86894000;5.39848000;2023-06-05T08:39:49;10.63;;;5.10;;
7829;SDS011;3960;51.86894000;5.39848000;2023-06-05T08:42:15;8.10;;;4.30;;
7829;SDS011;3960;51.86894000;5.39848000;2023-06-05T08:44:43;8.52;;;4.25;;
7829;SDS011;3960;51.86894000;5.39848000;2023-06-05T08:47:12;8.80;;;4.55;;
7829;SDS011;3960;51.86894000;5.39848000;2023-06-05T08:49:39;8.50;;;4.38;;
7829;SDS011;3960;51.86894000;5.39848000;2023-06-05T08:52:06;6.63;;;4.63;;
7829;SDS011;3960;51.86894000;5.39848000;2023-06-05T08:54:38;7.13;;;4.13;;
7829;SDS011;3960;51.86894000;5.39848000;2023-06-05T08:57:06;11.93;;;4.95;;
7829;SDS011;3960;51.86894000;5.39848000;2023-06-05T08:59:32;7.70;;;4.35;;
7829;SDS011;3960;51.86894000;5.39848000;2023-06-05T09:01:57;9.85;;;4.53;;
7829;SDS011;3960;51.86894000;5.39848000;2023-06-05T09:04:23;6.22;;;4.35;;
7829;SDS011;3960;51.86894000;5.39848000;2023-06-05T09:06:49;8.70;;;4.40;;
7829;SDS011;3960;51.86894000;5.39848000;2023-06-05T09:09:17;10.60;;;3.88;;
7829;SDS011;3960;51.86894000;5.39848000;2023-06-05T09:11:43;8.75;;;4.43;;
7829;SDS011;3960;51.86894000;5.39848000;2023-06-05T09:14:08;7.68;;;4.22;;
7829;SDS011;3960;51.86894000;5.39848000;2023-06-05T09:16:38;11.70;;;4.50;;
7829;SDS011;3960;51.86894000;5.39848000;2023-06-05T09:19:07;8.95;;;4.30;;
7829;SDS011;3960;51.86894000;5.39848000;2023-06-05T09:21:34;6.82;;;4.75;;
7829;SDS011;3960;51.86894000;5.39848000;2023-06-05T09:26:44;9.23;;;4.13;;
7829;SDS011;3960;51.86894000;5.39848000;2023-06-05T09:29:11;8.40;;;4.32;;
7829;SDS011;3960;51.86894000;5.39848000;2023-06-05T09:31:40;6.20;;;4.15;;
7829;SDS011;3960;51.86894000;5.39848000;2023-06-05T09:34:08;5.28;;;3.83;;
7829;SDS011;3960;51.86894000;5.39848000;2023-06-05T09:36:34;8.23;;;4.20;;
7829;SDS011;3960;51.86894000;5.39848000;2023-06-05T09:39:15;5.88;;;3.88;;
7829;SDS011;3960;51.86894000;5.39848000;2023-06-05T09:41:45;6.63;;;4.03;;
7829;SDS011;3960;51.86894000;5.39848000;2023-06-05T09:44:12;7.50;;;4.22;;
7829;SDS011;3960;51.86894000;5.39848000;2023-06-05T09:46:49;9.02;;;4.00;;
7829;SDS011;3960;51.86894000;5.39848000;2023-06-05T09:49:17;5.30;;;3.72;;
7829;SDS011;3960;51.86894000;5.39848000;2023-06-05T09:51:43;5.38;;;4.25;;
7829;SDS011;3960;51.86894000;5.39848000;2023-06-05T09:54:08;6.80;;;5.05;;
7829;SDS011;3960;51.86894000;5.39848000;2023-06-05T09:56:39;9.20;;;5.50;;
7829;SDS011;3960;51.86894000;5.39848000;2023-06-05T09:59:08;8.43;;;4.72;;
7829;SDS011;3960;51.86894000;5.39848000;2023-06-05T10:01:37;6.20;;;4.05;;
7829;SDS011;3960;51.86894000;5.39848000;2023-06-05T10:06:32;5.65;;;3.85;;
7829;SDS011;3960;51.86894000;5.39848000;2023-06-05T10:08:58;10.02;;;4.70;;
7829;SDS011;3960;51.86894000;5.39848000;2023-06-05T10:11:25;10.30;;;5.60;;
7829;SDS011;3960;51.86894000;5.39848000;2023-06-05T10:13:54;10.65;;;5.15;;
7829;SDS011;3960;51.86894000;5.39848000;2023-06-05T10:16:20;11.57;;;5.22;;
7829;SDS011;3960;51.86894000;5.39848000;2023-06-05T10:18:46;8.20;;;5.20;;
7829;SDS011;3960;51.86894000;5.39848000;2023-06-05T10:21:14;9.23;;;5.25;;
7829;SDS011;3960;51.86894000;5.39848000;2023-06-05T10:23:52;10.10;;;5.25;;
7829;SDS011;3960;51.86894000;5.39848000;2023-06-05T10:29:49;7.05;;;5.18;;
7829;SDS011;3960;51.86894000;5.39848000;2023-06-05T10:40:10;11.35;;;4.93;;
7829;SDS011;3960;51.86894000;5.39848000;2023-06-05T10:42:39;8.18;;;5.03;;
7829;SDS011;3960;51.86894000;5.39848000;2023-06-05T10:45:04;7.38;;;5.22;;
7829;SDS011;3960;51.86894000;5.39848000;2023-06-05T10:52:43;6.78;;;5.20;;
7829;SDS011;3960;51.86894000;5.39848000;2023-06-05T10:55:09;7.68;;;5.30;;
7829;SDS011;3960;51.86894000;5.39848000;2023-06-05T11:00:25;5.85;;;4.97;;
7829;SDS011;3960;51.86894000;5.39848000;2023-06-05T11:02:50;6.53;;;4.80;;
7829;SDS011;3960;51.86894000;5.39848000;2023-06-05T11:05:16;7.90;;;5.10;;
7829;SDS011;3960;51.86894000;5.39848000;2023-06-05T11:07:41;7.32;;;4.70;;
7829;SDS011;3960;51.86894000;5.39848000;2023-06-05T11:10:17;7.40;;;5.07;;
7829;SDS011;3960;51.86894000;5.39848000;2023-06-05T11:17:55;26.90;;;6.25;;
7829;SDS011;3960;51.86894000;5.39848000;2023-06-05T11:30:28;10.02;;;5.45;;
7829;SDS011;3960;51.86894000;5.39848000;2023-06-05T11:33:06;11.60;;;5.47;;
7829;SDS011;3960;51.86894000;5.39848000;2023-06-05T11:35:42;7.05;;;4.97;;
7829;SDS011;3960;51.86894000;5.39848000;2023-06-05T11:40:35;7.95;;;5.10;;
7829;SDS011;3960;51.86894000;5.39848000;2023-06-05T11:43:01;9.68;;;5.22;;
7829;SDS011;3960;51.86894000;5.39848000;2023-06-05T11:45:34;11.57;;;5.30;;
7829;SDS011;3960;51.86894000;5.39848000;2023-06-05T11:48:11;7.22;;;5.10;;
7829;SDS011;3960;51.86894000;5.39848000;2023-06-05T11:50:55;17.02;;;5.80;;
7829;SDS011;3960;51.86894000;5.39848000;2023-06-05T11:53:25;8.80;;;5.03;;
7829;SDS011;3960;51.86894000;5.39848000;2023-06-05T11:55:52;7.95;;;4.85;;
7829;SDS011;3960;51.86894000;5.39848000;2023-06-05T11:58:21;9.95;;;5.53;;
7829;SDS011;3960;51.86894000;5.39848000;2023-06-05T12:00:47;8.73;;;4.63;;
7829;SDS011;3960;51.86894000;5.39848000;2023-06-05T12:03:16;6.22;;;4.78;;
7829;SDS011;3960;51.86894000;5.39848000;2023-06-05T12:05:46;8.63;;;5.80;;
7829;SDS011;3960;51.86894000;5.39848000;2023-06-05T12:08:25;10.32;;;4.30;;
7829;SDS011;3960;51.86894000;5.39848000;2023-06-05T12:10:53;6.38;;;4.65;;
7829;SDS011;3960;51.86894000;5.39848000;2023-06-05T12:13:18;8.05;;;5.30;;
7829;SDS011;3960;51.86894000;5.39848000;2023-06-05T12:15:55;6.50;;;5.00;;
7829;SDS011;3960;51.86894000;5.39848000;2023-06-05T12:18:30;6.78;;;5.30;;
7829;SDS011;3960;51.86894000;5.39848000;2023-06-05T12:21:01;7.35;;;4.30;;
7829;SDS011;3960;51.86894000;5.39848000;2023-06-05T12:23:28;7.45;;;4.18;;
7829;SDS011;3960;51.86894000;5.39848000;2023-06-05T12:26:02;8.40;;;4.18;;
7829;SDS011;3960;51.86894000;5.39848000;2023-06-05T12:28:29;8.77;;;4.30;;
7829;SDS011;3960;51.86894000;5.39848000;2023-06-05T12:30:54;6.70;;;4.30;;
7829;SDS011;3960;51.86894000;5.39848000;2023-06-05T12:33:21;5.85;;;4.30;;
7829;SDS011;3960;51.86894000;5.39848000;2023-06-05T12:36:04;7.88;;;5.05;;
7829;SDS011;3960;51.86894000;5.39848000;2023-06-05T12:38:36;8.48;;;4.65;;
7829;SDS011;3960;51.86894000;5.39848000;2023-06-05T12:41:05;9.18;;;4.65;;
7829;SDS011;3960;51.86894000;5.39848000;2023-06-05T12:43:32;8.00;;;4.07;;
7829;SDS011;3960;51.86894000;5.39848000;2023-06-05T12:45:58;7.20;;;4.07;;
7829;SDS011;3960;51.86894000;5.39848000;2023-06-05T12:48:23;5.97;;;4.07;;
7829;SDS011;3960;51.86894000;5.39848000;2023-06-05T12:50:50;5.82;;;4.10;;
7829;SDS011;3960;51.86894000;5.39848000;2023-06-05T12:53:15;6.90;;;3.67;;
7829;SDS011;3960;51.86894000;5.39848000;2023-06-05T12:55:41;6.18;;;3.50;;
7829;SDS011;3960;51.86894000;5.39848000;2023-06-05T12:58:06;4.22;;;3.80;;
7829;SDS011;3960;51.86894000;5.39848000;2023-06-05T13:00:32;6.60;;;3.55;;
7829;SDS011;3960;51.86894000;5.39848000;2023-06-05T13:02:57;7.80;;;3.97;;
7829;SDS011;3960;51.86894000;5.39848000;2023-06-05T13:05:22;5.50;;;3.63;;
7829;SDS011;3960;51.86894000;5.39848000;2023-06-05T13:07:48;4.47;;;3.55;;
7829;SDS011;3960;51.86894000;5.39848000;2023-06-05T13:10:16;8.18;;;3.80;;
7829;SDS011;3960;51.86894000;5.39848000;2023-06-05T13:12:42;4.32;;;3.20;;
7829;SDS011;3960;51.86894000;5.39848000;2023-06-05T13:15:08;7.15;;;3.10;;
7829;SDS011;3960;51.86894000;5.39848000;2023-06-05T13:17:34;8.65;;;3.70;;
7829;SDS011;3960;51.86894000;5.39848000;2023-06-05T13:20:01;7.28;;;3.00;;
7829;SDS011;3960;51.86894000;5.39848000;2023-06-05T13:22:31;6.53;;;3.37;;
7829;SDS011;3960;51.86894000;5.39848000;2023-06-05T13:24:56;6.18;;;3.20;;
7829;SDS011;3960;51.86894000;5.39848000;2023-06-05T13:27:21;5.88;;;3.67;;
7829;SDS011;3960;51.86894000;5.39848000;2023-06-05T13:29:47;6.75;;;3.28;;
7829;SDS011;3960;51.86894000;5.39848000;2023-06-05T13:32:12;3.88;;;3.05;;
7829;SDS011;3960;51.86894000;5.39848000;2023-06-05T13:34:37;7.25;;;3.38;;
7829;SDS011;3960;51.86894000;5.39848000;2023-06-05T13:37:03;6.20;;;3.22;;
7829;SDS011;3960;51.86894000;5.39848000;2023-06-05T13:39:31;5.65;;;3.38;;
7829;SDS011;3960;51.86894000;5.39848000;2023-06-05T13:41:56;5.93;;;3.35;;
7829;SDS011;3960;51.86894000;5.39848000;2023-06-05T13:44:21;6.05;;;3.33;;
7829;SDS011;3960;51.86894000;5.39848000;2023-06-05T13:46:47;7.20;;;3.10;;
7829;SDS011;3960;51.86894000;5.39848000;2023-06-05T13:49:12;4.63;;;3.00;;
7829;SDS011;3960;51.86894000;5.39848000;2023-06-05T13:51:41;5.88;;;3.67;;
7829;SDS011;3960;51.86894000;5.39848000;2023-06-05T13:54:06;5.95;;;2.88;;
7829;SDS011;3960;51.86894000;5.39848000;2023-06-05T13:56:32;4.80;;;3.05;;
7829;SDS011;3960;51.86894000;5.39848000;2023-06-05T13:59:00;8.98;;;3.35;;